createdAt,value
2023-05-14T00:01:48.769Z,31.17
2023-05-14T00:04:20.449Z,30.85
2023-05-14T00:06:51.166Z,31.44
2023-05-14T00:09:22.473Z,31.34
2023-05-14T00:11:53.049Z,31.06
2023-05-14T00:14:23.660Z,31.37
2023-05-14T00:16:55.966Z,31.39
2023-05-14T00:19:26.612Z,31.60
2023-05-14T00:21:57.212Z,31.64
2023-05-14T00:24:27.922Z,31.06
2023-05-14T00:26:58.595Z,31.18
2023-05-14T00:29:29.292Z,31.02
2023-05-14T00:32:01.465Z,31.44
2023-05-14T00:34:32.176Z,31.74
2023-05-14T00:37:02.754Z,31.48
2023-05-14T00:39:33.635Z,31.67
2023-05-14T00:42:04.295Z,31.58
2023-05-14T00:44:35.109Z,31.91
2023-05-14T00:47:09.315Z,32.28
2023-05-14T00:49:40.907Z,31.28
2023-05-14T00:52:11.573Z,31.15
2023-05-14T00:54:42.258Z,31.83
2023-05-14T00:57:13.777Z,31.60
2023-05-14T00:59:44.629Z,32.00
2023-05-14T01:02:16.939Z,32.17
2023-05-14T01:04:47.711Z,31.83
2023-05-14T01:07:31.372Z,31.91
2023-05-14T01:10:11.260Z,32.25
2023-05-14T01:12:49.462Z,32.58
2023-05-14T01:15:31.641Z,32.51
2023-05-14T01:18:07.233Z,33.25
2023-05-14T01:20:38.490Z,33.32
2023-05-14T01:23:10.823Z,32.40
2023-05-14T01:25:41.838Z,33.08
2023-05-14T01:28:18.835Z,32.69
2023-05-14T01:30:56.142Z,32.52
2023-05-14T01:33:30.443Z,32.54
2023-05-14T01:36:01.153Z,32.10
2023-05-14T01:38:34.860Z,32.74
2023-05-14T01:41:07.671Z,31.45
2023-05-14T01:43:39.091Z,31.02
2023-05-14T01:46:09.786Z,31.42
2023-05-14T01:48:42.209Z,31.73
2023-05-14T01:51:15.419Z,31.54
2023-05-14T01:53:47.788Z,31.88
2023-05-14T01:56:18.412Z,31.89
2023-05-14T01:58:49.055Z,32.05
2023-05-14T02:01:19.768Z,31.46
2023-05-14T02:03:50.833Z,31.59
2023-05-14T02:06:21.633Z,31.97
2023-05-14T02:09:11.451Z,32.70
2023-05-14T02:11:42.147Z,32.08
2023-05-14T02:14:12.771Z,31.64
2023-05-14T02:16:44.335Z,31.69
2023-05-14T02:19:15.195Z,31.59
2023-05-14T02:21:46.516Z,32.08
2023-05-14T02:24:19.497Z,32.08
2023-05-14T02:26:50.423Z,32.11
2023-05-14T02:29:21.237Z,32.39
2023-05-14T02:31:52.111Z,31.61
2023-05-14T02:34:22.857Z,31.89
2023-05-14T02:36:53.572Z,32.39
2023-05-14T02:39:26.427Z,31.89
2023-05-14T02:41:57.401Z,31.88
2023-05-14T02:44:28.264Z,31.13
2023-05-14T02:46:59.088Z,31.45
2023-05-14T02:49:29.922Z,31.26
2023-05-14T02:52:01.653Z,31.32
2023-05-14T02:54:34.575Z,31.32
2023-05-14T02:57:05.492Z,31.79
2023-05-14T02:59:37.100Z,31.47
2023-05-14T03:02:08.575Z,31.05
2023-05-14T03:04:39.903Z,31.42
2023-05-14T03:07:10.565Z,31.66
2023-05-14T03:09:42.861Z,31.49
2023-05-14T03:12:13.625Z,30.61
2023-05-14T03:14:44.337Z,31.20
2023-05-14T03:17:15.234Z,31.61
2023-05-14T03:19:46.138Z,32.18
2023-05-14T03:22:16.928Z,32.24
2023-05-14T03:24:49.307Z,32.25
2023-05-14T03:27:19.982Z,31.53
2023-05-14T03:29:50.624Z,32.26
2023-05-14T03:32:22.185Z,32.65
2023-05-14T03:34:53.695Z,32.08
2023-05-14T03:37:24.639Z,31.88
2023-05-14T03:39:57.335Z,31.98
2023-05-14T03:42:28.023Z,31.88
2023-05-14T03:44:58.555Z,31.51
2023-05-14T03:47:29.038Z,32.50
2023-05-14T03:50:00.120Z,32.27
2023-05-14T03:52:30.706Z,31.64
2023-05-14T03:55:02.845Z,32.27
2023-05-14T03:57:33.305Z,32.18
2023-05-14T04:00:04.011Z,31.84
2023-05-14T04:02:34.714Z,32.09
2023-05-14T04:05:05.515Z,31.48
2023-05-14T04:07:35.976Z,31.85
2023-05-14T04:10:08.993Z,32.45
2023-05-14T04:12:39.535Z,32.84
2023-05-14T04:15:11.269Z,32.34
2023-05-14T04:17:44.394Z,32.74
2023-05-14T04:20:18.041Z,32.27
2023-05-14T04:22:50.149Z,32.16
2023-05-14T04:25:22.633Z,32.46
2023-05-14T04:27:53.121Z,32.44
2023-05-14T04:30:23.938Z,32.57
2023-05-14T04:32:54.612Z,32.16
2023-05-14T04:35:25.319Z,32.56
2023-05-14T04:37:55.781Z,32.42
2023-05-14T04:40:27.928Z,32.56
2023-05-14T04:42:58.479Z,32.45
2023-05-14T04:45:29.133Z,32.66
2023-05-14T04:47:59.717Z,32.74
2023-05-14T04:50:30.705Z,32.86
2023-05-14T04:53:01.381Z,32.16
2023-05-14T04:55:33.977Z,32.40
2023-05-14T04:58:04.508Z,32.29
2023-05-14T05:00:38.523Z,32.33
2023-05-14T05:03:09.575Z,32.60
2023-05-14T05:05:40.169Z,32.31
2023-05-14T05:08:12.186Z,32.69
2023-05-14T05:10:44.417Z,33.12
2023-05-14T05:13:15.065Z,33.10
2023-05-14T05:15:45.573Z,32.26
2023-05-14T05:18:16.131Z,32.39
2023-05-14T05:20:46.596Z,32.58
2023-05-14T05:23:17.233Z,32.56
2023-05-14T05:25:49.425Z,33.33
2023-05-14T05:28:20.001Z,33.21
2023-05-14T05:30:50.466Z,33.68
2023-05-14T05:33:21.121Z,32.95
2023-05-14T05:35:51.738Z,33.24
2023-05-14T05:38:22.254Z,33.46
2023-05-14T05:40:54.676Z,33.49
2023-05-14T05:43:25.294Z,33.66
2023-05-14T05:45:55.823Z,32.72
2023-05-14T05:48:26.442Z,32.68
2023-05-14T05:50:57.000Z,33.46
2023-05-14T05:53:27.832Z,33.66
2023-05-14T05:56:00.002Z,33.93
2023-05-14T05:58:30.507Z,34.28
2023-05-14T06:01:01.173Z,33.65
2023-05-14T06:03:31.679Z,33.35
2023-05-14T06:06:02.248Z,34.08
2023-05-14T06:08:32.775Z,34.12
2023-05-14T06:11:05.057Z,34.13
2023-05-14T06:13:35.501Z,34.07
2023-05-14T06:16:05.895Z,33.92
2023-05-14T06:18:36.576Z,33.77
2023-05-14T06:21:07.331Z,34.50
2023-05-14T06:23:46.802Z,34.70
2023-05-14T06:26:19.228Z,34.27
2023-05-14T06:28:49.998Z,34.49
2023-05-14T06:31:20.707Z,34.88
2023-05-14T06:33:51.224Z,35.29
2023-05-14T06:36:21.803Z,34.99
2023-05-14T06:38:52.229Z,35.13
2023-05-14T06:41:24.386Z,35.39
2023-05-14T06:43:54.864Z,35.57
2023-05-14T06:46:25.458Z,35.29
2023-05-14T06:48:57.375Z,35.63
2023-05-14T06:51:29.713Z,35.91
2023-05-14T06:54:00.648Z,36.56
2023-05-14T06:56:32.690Z,36.58
2023-05-14T06:59:03.200Z,36.37
2023-05-14T07:01:33.749Z,36.67
2023-05-14T07:04:04.374Z,37.03
2023-05-14T07:06:35.126Z,37.05
2023-05-14T07:09:05.659Z,38.13
2023-05-14T07:11:37.744Z,37.98
2023-05-14T07:14:08.286Z,38.42
2023-05-14T07:16:39.081Z,38.39
2023-05-14T07:19:09.782Z,38.59
2023-05-14T07:21:40.575Z,38.74
2023-05-14T07:24:11.394Z,38.80
2023-05-14T07:26:43.619Z,38.64
2023-05-14T07:29:14.097Z,38.82
2023-05-14T07:31:44.671Z,39.36
2023-05-14T07:34:15.308Z,39.23
2023-05-14T07:36:45.917Z,39.24
2023-05-14T07:39:16.658Z,39.48
2023-05-14T07:41:48.874Z,39.47
2023-05-14T07:44:19.497Z,39.29
2023-05-14T07:46:50.097Z,39.53
2023-05-14T07:49:20.624Z,39.61
2023-05-14T07:51:51.108Z,40.24
2023-05-14T07:54:21.815Z,40.41
2023-05-14T07:56:53.915Z,39.98
2023-05-14T07:59:24.814Z,40.21
2023-05-14T08:01:55.349Z,40.29
2023-05-14T08:04:25.915Z,40.03
2023-05-14T08:06:57.121Z,40.01
2023-05-14T08:09:27.544Z,40.24
2023-05-14T08:11:59.618Z,40.39
2023-05-14T08:14:30.154Z,40.61
2023-05-14T08:17:00.676Z,40.56
2023-05-14T08:19:31.234Z,40.54
2023-05-14T08:22:01.725Z,40.78
2023-05-14T08:24:32.363Z,41.27
2023-05-14T08:27:04.726Z,41.71
2023-05-14T08:29:35.184Z,41.98
2023-05-14T08:32:19.343Z,42.10
2023-05-14T08:34:53.942Z,42.31
2023-05-14T08:37:24.575Z,42.21
2023-05-14T08:39:55.147Z,42.37
2023-05-14T08:42:29.327Z,42.42
2023-05-14T08:45:03.975Z,43.00
2023-05-14T08:47:34.927Z,43.41
2023-05-14T08:50:07.204Z,43.67
2023-05-14T08:52:38.572Z,43.95
2023-05-14T08:55:10.219Z,44.18
2023-05-14T08:57:42.761Z,44.29
2023-05-14T09:00:14.657Z,44.43
2023-05-14T09:02:47.238Z,44.69
2023-05-14T09:05:19.932Z,44.69
2023-05-14T09:07:50.561Z,44.70
2023-05-14T09:10:22.329Z,44.95
2023-05-14T09:12:55.030Z,45.01
2023-05-14T09:15:28.193Z,45.40
2023-05-14T09:18:00.601Z,45.60
2023-05-14T09:20:31.538Z,45.81
2023-05-14T09:23:02.652Z,46.04
2023-05-14T09:25:44.145Z,45.99
2023-05-14T09:28:19.873Z,46.45
2023-05-14T09:30:54.037Z,46.96
2023-05-14T09:33:30.194Z,47.26
2023-05-14T09:36:04.284Z,47.22
2023-05-14T09:38:35.650Z,47.46
2023-05-14T09:41:06.511Z,47.85
2023-05-14T09:43:38.776Z,48.07
2023-05-14T09:46:09.598Z,48.36
2023-05-14T09:48:40.202Z,48.64
2023-05-14T09:51:15.245Z,48.84
2023-05-14T09:53:47.249Z,49.10
2023-05-14T09:56:18.115Z,49.26
2023-05-14T09:58:56.713Z,49.60
2023-05-14T10:01:35.088Z,49.66
2023-05-14T10:04:12.021Z,49.89
2023-05-14T10:06:44.433Z,50.13
2023-05-14T10:09:27.155Z,50.05
2023-05-14T10:12:03.813Z,50.32
2023-05-14T10:14:41.457Z,50.59
2023-05-14T10:17:19.177Z,50.97
2023-05-14T10:19:56.212Z,51.31
2023-05-14T10:22:35.724Z,51.93
2023-05-14T10:25:11.622Z,51.99
2023-05-14T10:27:43.259Z,52.26
2023-05-14T10:30:22.016Z,52.71
2023-05-14T10:33:09.572Z,53.11
2023-05-14T10:35:59.727Z,53.18
2023-05-14T10:38:31.248Z,53.72
2023-05-14T10:41:04.333Z,53.91
2023-05-14T10:43:42.191Z,54.15
2023-05-14T10:46:19.446Z,54.49
2023-05-14T10:48:52.633Z,54.08
2023-05-14T10:51:23.940Z,54.30
2023-05-14T10:53:55.735Z,53.95
2023-05-14T10:56:27.081Z,53.85
2023-05-14T10:59:08.927Z,53.71
2023-05-14T11:01:47.443Z,53.74
2023-05-14T11:04:22.644Z,53.91
2023-05-14T11:06:56.402Z,53.86
2023-05-14T11:09:38.091Z,53.87
2023-05-14T11:12:10.021Z,53.79
2023-05-14T11:14:41.366Z,54.04
2023-05-14T11:17:23.215Z,53.93
2023-05-14T11:19:56.704Z,54.09
2023-05-14T11:22:27.864Z,54.12
2023-05-14T11:24:58.868Z,54.28
2023-05-14T11:27:29.823Z,54.49
2023-05-14T11:30:04.230Z,54.22
2023-05-14T11:32:38.657Z,54.40
2023-05-14T11:35:11.368Z,54.66
2023-05-14T11:37:44.283Z,55.04
2023-05-14T11:40:23.218Z,55.70
2023-05-14T11:43:03.344Z,56.16
2023-05-14T11:45:35.224Z,56.51
2023-05-14T11:48:18.127Z,56.91
2023-05-14T11:50:53.153Z,57.11
2023-05-14T11:53:32.403Z,57.27
2023-05-14T11:56:03.930Z,58.25
2023-05-14T11:58:36.024Z,58.38
2023-05-14T12:01:09.421Z,58.74
2023-05-14T12:03:47.660Z,59.46
2023-05-14T12:06:18.660Z,59.71
2023-05-14T12:08:54.268Z,59.96
2023-05-14T12:11:24.953Z,60.55
2023-05-14T12:13:56.512Z,60.47
2023-05-14T12:16:35.539Z,60.75
2023-05-14T12:19:16.911Z,60.82
2023-05-14T12:21:48.668Z,61.09
2023-05-14T12:24:21.033Z,61.69
2023-05-14T12:26:54.577Z,61.75
2023-05-14T12:29:29.040Z,61.60
2023-05-14T12:32:10.193Z,62.15
2023-05-14T12:34:43.687Z,62.32
2023-05-14T12:37:14.302Z,62.71
2023-05-14T12:39:45.102Z,63.25
2023-05-14T12:42:15.780Z,63.70
2023-05-14T12:44:46.552Z,63.86
2023-05-14T12:47:18.039Z,64.54
2023-05-14T12:49:50.528Z,65.18
2023-05-14T12:52:33.332Z,65.09
2023-05-14T12:55:10.057Z,65.90
2023-05-14T12:57:50.987Z,65.94
2023-05-14T13:00:22.367Z,66.13
2023-05-14T13:02:53.211Z,66.54
2023-05-14T13:05:25.995Z,66.36
2023-05-14T13:07:59.794Z,66.51
2023-05-14T13:10:30.583Z,66.85
2023-05-14T13:13:02.933Z,66.87
2023-05-14T13:15:34.560Z,67.41
2023-05-14T13:18:05.353Z,67.77
2023-05-14T13:20:37.677Z,67.96
2023-05-14T13:23:08.362Z,67.88
2023-05-14T13:25:39.325Z,68.67
2023-05-14T13:28:11.206Z,68.71
2023-05-14T13:30:41.840Z,68.71
2023-05-14T13:33:15.635Z,68.78
2023-05-14T13:35:48.032Z,69.22
2023-05-14T13:38:18.670Z,69.19
2023-05-14T13:40:49.361Z,69.73
2023-05-14T13:43:20.086Z,69.66
2023-05-14T13:45:50.903Z,69.16
2023-05-14T13:48:21.703Z,69.15
2023-05-14T13:50:54.513Z,68.59
2023-05-14T13:53:26.824Z,68.49
2023-05-14T13:56:02.189Z,68.61
2023-05-14T13:58:33.204Z,68.97
2023-05-14T14:01:04.003Z,69.06
2023-05-14T14:03:34.815Z,68.94
2023-05-14T14:06:07.305Z,69.00
2023-05-14T14:08:37.994Z,68.89
2023-05-14T14:11:08.836Z,68.47
2023-05-14T14:13:40.712Z,68.92
2023-05-14T14:16:11.506Z,69.02
2023-05-14T14:18:43.889Z,68.99
2023-05-14T14:21:18.788Z,69.08
2023-05-14T14:23:49.768Z,69.12
2023-05-14T14:26:21.764Z,68.82
2023-05-14T14:28:52.464Z,68.84
2023-05-14T14:31:23.972Z,68.62
2023-05-14T14:33:54.827Z,68.21
2023-05-14T14:36:27.253Z,68.08
2023-05-14T14:38:57.936Z,68.30
2023-05-14T14:41:29.155Z,68.95
2023-05-14T14:43:59.868Z,68.86
2023-05-14T14:46:30.631Z,68.74
2023-05-14T14:49:01.389Z,68.61
2023-05-14T14:51:36.982Z,68.46
2023-05-14T14:54:08.009Z,69.03
2023-05-14T14:56:38.676Z,69.04
2023-05-14T14:59:09.404Z,69.25
2023-05-14T15:01:43.040Z,69.09
2023-05-14T15:04:18.834Z,68.90
2023-05-14T15:06:53.896Z,69.01
2023-05-14T15:09:32.546Z,69.07
2023-05-14T15:12:10.132Z,69.61
2023-05-14T15:14:45.489Z,69.54
2023-05-14T15:17:19.098Z,69.65
2023-05-14T15:19:55.386Z,69.75
2023-05-14T15:22:29.853Z,69.72
2023-05-14T15:25:09.198Z,69.65
2023-05-14T15:27:45.615Z,69.64
2023-05-14T15:30:22.082Z,69.99
2023-05-14T15:32:53.675Z,70.22
2023-05-14T15:35:29.377Z,70.54
2023-05-14T15:38:06.583Z,69.80
2023-05-14T15:40:38.334Z,69.58
2023-05-14T15:43:14.044Z,69.53
2023-05-14T15:45:48.965Z,68.61
2023-05-14T15:48:22.706Z,68.66
2023-05-14T15:50:55.231Z,67.96
2023-05-14T15:53:30.116Z,67.80
2023-05-14T15:56:03.840Z,67.13
2023-05-14T15:58:37.263Z,67.21
2023-05-14T16:01:11.844Z,67.10
2023-05-14T16:03:47.146Z,67.47
2023-05-14T16:06:20.504Z,68.49
2023-05-14T16:08:57.442Z,68.80
2023-05-14T16:11:30.039Z,68.77
2023-05-14T16:14:03.482Z,68.97
2023-05-14T16:16:36.484Z,69.08
2023-05-14T16:19:08.470Z,68.66
2023-05-14T16:21:43.346Z,68.42
2023-05-14T16:24:23.810Z,68.30
2023-05-14T16:26:57.813Z,68.28
2023-05-14T16:29:30.732Z,68.18
2023-05-14T16:32:05.480Z,68.18
2023-05-14T16:34:38.977Z,68.56
2023-05-14T16:37:13.132Z,68.67
2023-05-14T16:39:49.399Z,68.99
2023-05-14T16:42:23.066Z,69.00
2023-05-14T16:44:59.361Z,69.20
2023-05-14T16:47:31.114Z,69.92
2023-05-14T16:50:06.168Z,69.48
2023-05-14T16:52:43.830Z,69.70
2023-05-14T16:55:19.488Z,69.42
2023-05-14T16:57:50.190Z,69.55
2023-05-14T17:00:20.990Z,69.70
2023-05-14T17:02:53.343Z,69.69
2023-05-14T17:05:24.359Z,70.13
2023-05-14T17:07:55.317Z,70.12
2023-05-14T17:10:29.246Z,70.73
2023-05-14T17:12:59.927Z,70.71
2023-05-14T17:15:30.702Z,70.78
2023-05-14T17:18:01.735Z,71.12
2023-05-14T17:20:33.157Z,70.80
2023-05-14T17:23:04.040Z,71.39
2023-05-14T17:25:36.282Z,71.77
2023-05-14T17:28:07.074Z,72.43
2023-05-14T17:30:37.760Z,71.68
2023-05-14T17:33:08.563Z,71.54
2023-05-14T17:35:39.446Z,71.44
2023-05-14T17:38:10.383Z,71.38
2023-05-14T17:40:43.133Z,71.45
2023-05-14T17:43:13.913Z,71.75
2023-05-14T17:45:54.003Z,72.15
2023-05-14T17:48:25.455Z,73.16
2023-05-14T17:50:58.984Z,73.22
2023-05-14T17:53:30.128Z,73.96
2023-05-14T17:56:02.499Z,73.67
2023-05-14T17:58:33.273Z,73.63
2023-05-14T18:01:04.301Z,72.72
2023-05-14T18:03:35.082Z,72.69
2023-05-14T18:06:06.162Z,72.10
2023-05-14T18:08:36.867Z,71.70
2023-05-14T18:11:09.212Z,72.28
2023-05-14T18:13:39.811Z,72.08
2023-05-14T18:16:11.229Z,72.50
2023-05-14T18:18:42.005Z,72.50
2023-05-14T18:21:12.692Z,72.75
2023-05-14T18:23:43.395Z,72.99
2023-05-14T18:26:15.806Z,73.20
2023-05-14T18:28:46.543Z,73.60
2023-05-14T18:31:17.218Z,73.99
2023-05-14T18:33:48.028Z,74.69
2023-05-14T18:36:18.681Z,74.41
2023-05-14T18:38:49.589Z,74.79
2023-05-14T18:41:22.260Z,74.63
2023-05-14T18:43:52.861Z,75.07
2023-05-14T18:46:23.620Z,75.60
2023-05-14T18:48:54.635Z,75.50
2023-05-14T18:51:25.386Z,76.03
2023-05-14T18:53:56.137Z,76.66
2023-05-14T18:56:28.524Z,77.25
2023-05-14T18:59:01.843Z,76.91
2023-05-14T19:01:32.713Z,76.48
2023-05-14T19:04:05.310Z,75.97
2023-05-14T19:06:37.028Z,75.96
2023-05-14T19:09:07.667Z,75.62
2023-05-14T19:11:39.977Z,75.26
2023-05-14T19:14:10.642Z,74.73
2023-05-14T19:16:41.401Z,74.80
2023-05-14T19:19:12.538Z,73.94
2023-05-14T19:21:43.277Z,73.33
2023-05-14T19:24:14.074Z,73.09
2023-05-14T19:26:46.429Z,72.59
2023-05-14T19:29:17.274Z,72.88
2023-05-14T19:31:48.602Z,72.89
2023-05-14T19:34:19.360Z,72.99
2023-05-14T19:36:50.057Z,72.63
2023-05-14T19:39:21.319Z,71.68
2023-05-14T19:41:53.722Z,70.98
2023-05-14T19:44:24.489Z,70.65
2023-05-14T19:46:55.349Z,70.11
2023-05-14T19:49:26.180Z,69.48
2023-05-14T19:51:56.809Z,69.11
2023-05-14T19:54:27.649Z,68.53
2023-05-14T19:57:00.195Z,67.94
2023-05-14T19:59:31.822Z,67.75
2023-05-14T20:02:07.631Z,67.33
2023-05-14T20:04:40.825Z,66.68
2023-05-14T20:07:12.907Z,66.89
2023-05-14T20:09:43.766Z,66.59
2023-05-14T20:12:16.731Z,66.41
2023-05-14T20:14:47.412Z,66.82
2023-05-14T20:17:20.088Z,66.29
2023-05-14T20:19:51.069Z,65.74
2023-05-14T20:22:22.172Z,65.57
2023-05-14T20:24:53.495Z,65.39
2023-05-14T20:27:25.900Z,64.99
2023-05-14T20:29:57.085Z,64.77
2023-05-14T20:32:27.899Z,64.60
2023-05-14T20:35:02.794Z,64.30
2023-05-14T20:37:34.857Z,64.12
2023-05-14T20:40:11.086Z,64.69
2023-05-14T20:42:43.626Z,64.44
2023-05-14T20:45:15.005Z,64.21
2023-05-14T20:47:47.032Z,63.90
2023-05-14T20:50:17.872Z,63.20
2023-05-14T20:52:48.750Z,63.12
2023-05-14T20:55:19.893Z,63.67
2023-05-14T20:57:52.613Z,63.75
2023-05-14T21:00:46.512Z,64.22
2023-05-14T21:03:18.726Z,64.38
2023-05-14T21:05:49.602Z,64.47
2023-05-14T21:08:20.360Z,64.86
2023-05-14T21:10:51.150Z,65.13
2023-05-14T21:13:23.704Z,64.91
2023-05-14T21:15:54.827Z,64.70
2023-05-14T21:18:35.653Z,64.85
2023-05-14T21:21:06.579Z,65.14
2023-05-14T21:23:38.165Z,65.68
2023-05-14T21:26:09.037Z,65.81
2023-05-14T21:28:44.161Z,65.64
2023-05-14T21:31:18.211Z,65.51
2023-05-14T21:33:48.943Z,65.04
2023-05-14T21:36:19.899Z,64.06
2023-05-14T21:38:53.655Z,64.03
2023-05-14T21:41:24.580Z,63.37
2023-05-14T21:43:57.201Z,64.11
2023-05-14T21:46:29.794Z,64.05
2023-05-14T21:49:01.066Z,63.41
2023-05-14T21:51:37.231Z,63.43
2023-05-14T21:54:08.345Z,63.35
2023-05-14T21:56:39.843Z,63.28
2023-05-14T21:59:13.910Z,62.71
2023-05-14T22:04:17.857Z,62.50
2023-05-14T22:06:53.041Z,62.50
2023-05-14T22:09:23.682Z,62.10
2023-05-14T22:11:59.767Z,62.65
2023-05-14T22:14:37.670Z,62.18
2023-05-14T22:17:08.513Z,62.32
2023-05-14T22:19:39.414Z,61.64
2023-05-14T22:22:14.718Z,61.56
2023-05-14T22:24:45.329Z,61.60
2023-05-14T22:27:15.897Z,61.74
2023-05-14T22:29:51.382Z,61.97
2023-05-14T22:32:22.306Z,61.82
2023-05-14T22:34:53.385Z,61.89
2023-05-14T22:37:25.349Z,61.74
2023-05-14T22:39:56.339Z,61.24
2023-05-14T22:42:27.547Z,60.63
2023-05-14T22:45:01.566Z,60.20
2023-05-14T22:47:32.645Z,59.66
2023-05-14T22:50:03.866Z,59.33
2023-05-14T22:52:43.737Z,59.57
2023-05-14T22:55:14.446Z,58.74
2023-05-14T22:57:46.416Z,58.65
2023-05-14T23:00:19.382Z,58.48
2023-05-14T23:02:50.103Z,58.47
2023-05-14T23:05:23.989Z,58.29
2023-05-14T23:07:58.113Z,58.27
2023-05-14T23:10:29.231Z,58.22
2023-05-14T23:12:59.985Z,58.48
2023-05-14T23:15:32.519Z,58.65
2023-05-14T23:18:06.449Z,58.79
2023-05-14T23:20:37.973Z,58.96
2023-05-14T23:23:08.979Z,58.94
2023-05-14T23:25:39.922Z,57.74
2023-05-14T23:28:10.679Z,57.71
2023-05-14T23:30:43.233Z,57.99
2023-05-14T23:33:13.960Z,57.60
2023-05-14T23:35:45.058Z,57.42
2023-05-14T23:38:19.180Z,56.72
2023-05-14T23:40:50.308Z,57.31
2023-05-14T23:43:20.993Z,56.64
2023-05-14T23:45:53.141Z,56.75
2023-05-14T23:48:24.127Z,56.63
2023-05-14T23:50:54.601Z,56.91
2023-05-14T23:53:25.135Z,56.58
2023-05-14T23:56:04.699Z,57.17
2023-05-14T23:58:35.560Z,56.97
